sensor_id;sensor_type;location;lat;lon;timestamp;pressure;altitude;pressure_sealevel;temperature;humidity
30021;BME280;16861;52.294;7.760;2023-04-06T00:00:33;100075.69;;;7.43;41.68
30021;BME280;16861;52.294;7.760;2023-04-06T00:02:59;100068.72;;;7.43;41.68
30021;BME280;16861;52.294;7.760;2023-04-06T00:05:26;100078.25;;;7.45;41.65
30021;BME280;16861;52.294;7.760;2023-04-06T00:07:54;100080.88;;;7.45;41.75
30021;BME280;16861;52.294;7.760;2023-04-06T00:10:22;100069.47;;;7.46;42.06
30021;BME280;16861;52.294;7.760;2023-04-06T00:12:48;100072.09;;;7.46;41.87
30021;BME280;16861;52.294;7.760;2023-04-06T00:15:15;100065.97;;;7.47;41.81
30021;BME280;16861;52.294;7.760;2023-04-06T00:17:41;100065.06;;;7.48;41.78
30021;BME280;16861;52.294;7.760;2023-04-06T00:20:08;100067.69;;;7.48;41.86
30021;BME280;16861;52.294;7.760;2023-04-06T00:22:35;100064.19;;;7.47;41.69
30021;BME280;16861;52.294;7.760;2023-04-06T00:25:02;100060.75;;;7.47;41.81
30021;BME280;16861;52.294;7.760;2023-04-06T00:27:28;100056.38;;;7.46;41.57
30021;BME280;16861;52.294;7.760;2023-04-06T00:29:55;100061.63;;;7.46;41.53
30021;BME280;16861;52.294;7.760;2023-04-06T00:32:22;100059.97;;;7.43;41.23
30021;BME280;16861;52.294;7.760;2023-04-06T00:34:48;100045.25;;;7.40;41.54
30021;BME280;16861;52.294;7.760;2023-04-06T00:37:15;100047.09;;;7.38;41.35
30021;BME280;16861;52.294;7.760;2023-04-06T00:39:42;100045.34;;;7.37;41.69
30021;BME280;16861;52.294;7.760;2023-04-06T00:42:12;100048.94;;;7.35;41.23
30021;BME280;16861;52.294;7.760;2023-04-06T00:44:41;100042.81;;;7.36;41.73
30021;BME280;16861;52.294;7.760;2023-04-06T00:47:08;100040.22;;;7.36;42.01
30021;BME280;16861;52.294;7.760;2023-04-06T00:49:35;100035.81;;;7.36;42.22
30021;BME280;16861;52.294;7.760;2023-04-06T00:52:02;100034.09;;;7.35;42.12
30021;BME280;16861;52.294;7.760;2023-04-06T00:54:28;100031.47;;;7.35;42.09
30021;BME280;16861;52.294;7.760;2023-04-06T00:56:55;100029.72;;;7.36;42.26
30021;BME280;16861;52.294;7.760;2023-04-06T00:59:22;100014.06;;;7.34;42.18
30021;BME280;16861;52.294;7.760;2023-04-06T01:01:49;100016.63;;;7.36;42.18
30021;BME280;16861;52.294;7.760;2023-04-06T01:04:15;100027.13;;;7.36;41.98
30021;BME280;16861;52.294;7.760;2023-04-06T01:06:42;100021.00;;;7.35;41.97
30021;BME280;16861;52.294;7.760;2023-04-06T01:09:08;100010.59;;;7.34;41.92
30021;BME280;16861;52.294;7.760;2023-04-06T01:11:35;100015.81;;;7.34;42.38
30021;BME280;16861;52.294;7.760;2023-04-06T01:14:03;100010.66;;;7.32;42.47
30021;BME280;16861;52.294;7.760;2023-04-06T01:16:29;100001.97;;;7.32;42.15
30021;BME280;16861;52.294;7.760;2023-04-06T01:18:56;99998.53;;;7.29;42.11
30021;BME280;16861;52.294;7.760;2023-04-06T01:21:23;100009.06;;;7.28;42.31
30021;BME280;16861;52.294;7.760;2023-04-06T01:23:49;100004.75;;;7.27;42.46
30021;BME280;16861;52.294;7.760;2023-04-06T01:26:16;99998.63;;;7.26;42.60
30021;BME280;16861;52.294;7.760;2023-04-06T01:28:43;100002.19;;;7.25;42.37
30021;BME280;16861;52.294;7.760;2023-04-06T01:31:10;100004.84;;;7.24;42.19
30021;BME280;16861;52.294;7.760;2023-04-06T01:33:37;99999.66;;;7.22;42.07
30021;BME280;16861;52.294;7.760;2023-04-06T01:36:04;99992.78;;;7.20;42.25
30021;BME280;16861;52.294;7.760;2023-04-06T01:38:30;100003.41;;;7.16;42.16
30021;BME280;16861;52.294;7.760;2023-04-06T01:40:57;99989.50;;;7.14;42.28
30021;BME280;16861;52.294;7.760;2023-04-06T01:43:23;99986.22;;;7.09;42.56
30021;BME280;16861;52.294;7.760;2023-04-06T01:45:50;99986.28;;;7.08;42.37
30021;BME280;16861;52.294;7.760;2023-04-06T01:48:18;99985.56;;;7.04;42.10
30021;BME280;16861;52.294;7.760;2023-04-06T01:50:45;99980.38;;;7.02;42.49
30021;BME280;16861;52.294;7.760;2023-04-06T01:53:11;99985.66;;;7.01;42.89
30021;BME280;16861;52.294;7.760;2023-04-06T01:55:38;99981.34;;;7.00;43.03
30021;BME280;16861;52.294;7.760;2023-04-06T01:58:04;99974.47;;;6.97;43.01
30021;BME280;16861;52.294;7.760;2023-04-06T02:00:31;99973.59;;;6.97;42.83
30021;BME280;16861;52.294;7.760;2023-04-06T02:02:57;99963.19;;;6.95;42.56
30021;BME280;16861;52.294;7.760;2023-04-06T02:05:25;99970.25;;;6.93;42.87
30021;BME280;16861;52.294;7.760;2023-04-06T02:07:52;99977.25;;;6.93;43.08
30021;BME280;16861;52.294;7.760;2023-04-06T02:10:18;99968.63;;;6.90;43.38
30021;BME280;16861;52.294;7.760;2023-04-06T02:12:45;99973.03;;;6.88;43.28
30021;BME280;16861;52.294;7.760;2023-04-06T02:15:11;99965.19;;;6.88;43.49
30021;BME280;16861;52.294;7.760;2023-04-06T02:17:40;99964.41;;;6.86;43.09
30021;BME280;16861;52.294;7.760;2023-04-06T02:20:07;99963.59;;;6.84;43.47
30021;BME280;16861;52.294;7.760;2023-04-06T02:22:35;99961.91;;;6.83;43.22
30021;BME280;16861;52.294;7.760;2023-04-06T02:25:01;99966.34;;;6.81;43.26
30021;BME280;16861;52.294;7.760;2023-04-06T02:27:28;99963.84;;;6.78;43.47
30021;BME280;16861;52.294;7.760;2023-04-06T02:29:55;99963.00;;;6.77;43.76
30021;BME280;16861;52.294;7.760;2023-04-06T02:32:21;99968.28;;;6.76;43.69
30021;BME280;16861;52.294;7.760;2023-04-06T02:34:48;99961.34;;;6.75;43.40
30021;BME280;16861;52.294;7.760;2023-04-06T02:37:14;99965.78;;;6.73;43.67
30021;BME280;16861;52.294;7.760;2023-04-06T02:39:41;99960.66;;;6.70;43.83
30021;BME280;16861;52.294;7.760;2023-04-06T02:42:07;99958.97;;;6.69;43.71
30021;BME280;16861;52.294;7.760;2023-04-06T02:44:35;99958.16;;;6.67;43.93
30021;BME280;16861;52.294;7.760;2023-04-06T02:47:01;99954.75;;;6.64;44.02
30021;BME280;16861;52.294;7.760;2023-04-06T02:49:28;99951.34;;;6.62;44.09
30021;BME280;16861;52.294;7.760;2023-04-06T02:51:54;99946.16;;;6.61;43.94
30021;BME280;16861;52.294;7.760;2023-04-06T02:54:21;99949.75;;;6.58;43.78
30021;BME280;16861;52.294;7.760;2023-04-06T02:56:47;99937.59;;;6.57;43.99
30021;BME280;16861;52.294;7.760;2023-04-06T02:59:14;99945.47;;;6.56;43.98
30021;BME280;16861;52.294;7.760;2023-04-06T03:01:40;99947.25;;;6.55;44.22
30021;BME280;16861;52.294;7.760;2023-04-06T03:04:07;99938.59;;;6.53;43.94
30021;BME280;16861;52.294;7.760;2023-04-06T03:06:33;99944.75;;;6.52;43.92
30021;BME280;16861;52.294;7.760;2023-04-06T03:09:00;99945.69;;;6.51;44.10
30021;BME280;16861;52.294;7.760;2023-04-06T03:11:27;99934.44;;;6.47;44.09
30021;BME280;16861;52.294;7.760;2023-04-06T03:13:53;99943.16;;;6.48;44.14
30021;BME280;16861;52.294;7.760;2023-04-06T03:16:20;99944.06;;;6.47;44.18
30021;BME280;16861;52.294;7.760;2023-04-06T03:18:47;99938.94;;;6.44;44.46
30021;BME280;16861;52.294;7.760;2023-04-06T03:21:13;99936.38;;;6.42;44.29
30021;BME280;16861;52.294;7.760;2023-04-06T03:23:42;99938.16;;;6.42;44.15
30021;BME280;16861;52.294;7.760;2023-04-06T03:26:08;99940.84;;;6.40;44.19
30021;BME280;16861;52.294;7.760;2023-04-06T03:28:35;99941.66;;;6.41;44.32
30021;BME280;16861;52.294;7.760;2023-04-06T03:31:02;99934.75;;;6.39;44.46
30021;BME280;16861;52.294;7.760;2023-04-06T03:33:28;99933.03;;;6.38;44.58
30021;BME280;16861;52.294;7.760;2023-04-06T03:35:55;99939.19;;;6.37;44.35
30021;BME280;16861;52.294;7.760;2023-04-06T03:38:22;99935.72;;;6.37;44.18
30021;BME280;16861;52.294;7.760;2023-04-06T03:40:48;99935.75;;;6.35;44.59
30021;BME280;16861;52.294;7.760;2023-04-06T03:43:15;99941.00;;;6.35;44.33
30021;BME280;16861;52.294;7.760;2023-04-06T03:45:41;99936.69;;;6.34;44.30
30021;BME280;16861;52.294;7.760;2023-04-06T03:48:08;99938.44;;;6.34;44.65
30021;BME280;16861;52.294;7.760;2023-04-06T03:50:35;99930.63;;;6.32;44.96
30021;BME280;16861;52.294;7.760;2023-04-06T03:53:01;99936.78;;;6.31;44.20
30021;BME280;16861;52.294;7.760;2023-04-06T03:55:29;99935.94;;;6.31;44.52
30021;BME280;16861;52.294;7.760;2023-04-06T03:57:56;99931.59;;;6.30;44.51
30021;BME280;16861;52.294;7.760;2023-04-06T04:00:23;99932.53;;;6.29;44.67
30021;BME280;16861;52.294;7.760;2023-04-06T04:02:49;99936.06;;;6.28;44.60
30021;BME280;16861;52.294;7.760;2023-04-06T04:05:16;99932.63;;;6.25;44.71
30021;BME280;16861;52.294;7.760;2023-04-06T04:07:42;99928.38;;;6.23;44.88
30021;BME280;16861;52.294;7.760;2023-04-06T04:10:09;99928.41;;;6.21;44.94
30021;BME280;16861;52.294;7.760;2023-04-06T04:12:36;99923.31;;;6.18;44.83
30021;BME280;16861;52.294;7.760;2023-04-06T04:15:02;99932.13;;;6.16;44.85
30021;BME280;16861;52.294;7.760;2023-04-06T04:17:29;99932.22;;;6.12;45.03
30021;BME280;16861;52.294;7.760;2023-04-06T04:19:56;99933.19;;;6.10;44.98
30021;BME280;16861;52.294;7.760;2023-04-06T04:22:22;99938.53;;;6.07;44.79
30021;BME280;16861;52.294;7.760;2023-04-06T04:24:49;99934.25;;;6.04;45.11
30021;BME280;16861;52.294;7.760;2023-04-06T04:27:15;99936.88;;;6.03;45.11
30021;BME280;16861;52.294;7.760;2023-04-06T04:29:42;99931.75;;;5.99;44.94
30021;BME280;16861;52.294;7.760;2023-04-06T04:32:09;99930.94;;;5.99;45.22
30021;BME280;16861;52.294;7.760;2023-04-06T04:34:36;99931.88;;;5.96;44.93
30021;BME280;16861;52.294;7.760;2023-04-06T04:37:06;99933.69;;;5.94;44.93
30021;BME280;16861;52.294;7.760;2023-04-06T04:39:33;99939.00;;;5.91;45.02
30021;BME280;16861;52.294;7.760;2023-04-06T04:41:59;99940.88;;;5.87;45.09
30021;BME280;16861;52.294;7.760;2023-04-06T04:44:26;99939.25;;;5.85;45.30
30021;BME280;16861;52.294;7.760;2023-04-06T04:46:52;99939.34;;;5.82;45.48
30021;BME280;16861;52.294;7.760;2023-04-06T04:49:19;99933.28;;;5.81;45.42
30021;BME280;16861;52.294;7.760;2023-04-06T04:51:45;99934.16;;;5.80;45.51
30021;BME280;16861;52.294;7.760;2023-04-06T04:54:12;99939.38;;;5.80;45.63
30021;BME280;16861;52.294;7.760;2023-04-06T04:56:38;99932.50;;;5.78;45.83
30021;BME280;16861;52.294;7.760;2023-04-06T04:59:05;99936.91;;;5.77;46.06
30021;BME280;16861;52.294;7.760;2023-04-06T05:01:32;99935.19;;;5.76;45.78
30021;BME280;16861;52.294;7.760;2023-04-06T05:04:16;99937.81;;;5.76;45.90
30021;BME280;16861;52.294;7.760;2023-04-06T05:06:43;99928.25;;;5.75;45.91
30021;BME280;16861;52.294;7.760;2023-04-06T05:09:09;99934.34;;;5.76;46.04
30021;BME280;16861;52.294;7.760;2023-04-06T05:11:36;99939.56;;;5.76;45.72
30021;BME280;16861;52.294;7.760;2023-04-06T05:14:03;99935.19;;;5.76;45.95
30021;BME280;16861;52.294;7.760;2023-04-06T05:16:29;99931.66;;;5.77;45.96
30021;BME280;16861;52.294;7.760;2023-04-06T05:18:56;99932.50;;;5.78;46.14
30021;BME280;16861;52.294;7.760;2023-04-06T05:21:23;99930.72;;;5.80;46.32
30021;BME280;16861;52.294;7.760;2023-04-06T05:23:52;99935.88;;;5.81;46.33
30021;BME280;16861;52.294;7.760;2023-04-06T05:26:20;99940.19;;;5.82;46.30
30021;BME280;16861;52.294;7.760;2023-04-06T05:28:46;99934.06;;;5.83;46.32
30021;BME280;16861;52.294;7.760;2023-04-06T05:31:13;99922.69;;;5.84;46.25
30021;BME280;16861;52.294;7.760;2023-04-06T05:33:41;99932.25;;;5.85;46.22
30021;BME280;16861;52.294;7.760;2023-04-06T05:36:07;99931.34;;;5.86;46.04
30021;BME280;16861;52.294;7.760;2023-04-06T05:38:34;99925.22;;;5.87;45.90
30021;BME280;16861;52.294;7.760;2023-04-06T05:41:01;99922.69;;;5.84;45.83
30021;BME280;16861;52.294;7.760;2023-04-06T05:43:28;99914.94;;;5.83;45.87
30021;BME280;16861;52.294;7.760;2023-04-06T05:45:54;99932.38;;;5.82;45.94
30021;BME280;16861;52.294;7.760;2023-04-06T05:48:21;99923.66;;;5.82;46.12
30021;BME280;16861;52.294;7.760;2023-04-06T05:50:49;99930.66;;;5.81;46.17
30021;BME280;16861;52.294;7.760;2023-04-06T05:53:17;99926.22;;;5.83;46.12
30021;BME280;16861;52.294;7.760;2023-04-06T05:55:43;99933.16;;;5.84;46.19
30021;BME280;16861;52.294;7.760;2023-04-06T05:58:10;99932.22;;;5.87;46.11
30021;BME280;16861;52.294;7.760;2023-04-06T06:00:37;99927.78;;;5.89;46.35
30021;BME280;16861;52.294;7.760;2023-04-06T06:03:03;99924.19;;;5.92;46.19
30021;BME280;16861;52.294;7.760;2023-04-06T06:05:32;99920.56;;;5.96;46.20
30021;BME280;16861;52.294;7.760;2023-04-06T06:07:58;99920.47;;;5.99;46.20
30021;BME280;16861;52.294;7.760;2023-04-06T06:10:25;99922.97;;;6.02;46.37
30021;BME280;16861;52.294;7.760;2023-04-06T06:12:51;99925.50;;;6.05;45.93
30021;BME280;16861;52.294;7.760;2023-04-06T06:15:18;99927.16;;;6.08;46.15
30021;BME280;16861;52.294;7.760;2023-04-06T06:17:45;99919.22;;;6.11;46.00
30021;BME280;16861;52.294;7.760;2023-04-06T06:20:12;99921.78;;;6.12;46.07
30021;BME280;16861;52.294;7.760;2023-04-06T06:22:38;99922.59;;;6.13;46.12
30021;BME280;16861;52.294;7.760;2023-04-06T06:25:06;99921.69;;;6.16;46.17
30021;BME280;16861;52.294;7.760;2023-04-06T06:27:33;99921.53;;;6.19;46.34
30021;BME280;16861;52.294;7.760;2023-04-06T06:29:59;99923.13;;;6.23;46.37
30021;BME280;16861;52.294;7.760;2023-04-06T06:32:26;99915.97;;;6.28;46.18
30021;BME280;16861;52.294;7.760;2023-04-06T06:34:53;99929.75;;;6.33;45.98
30021;BME280;16861;52.294;7.760;2023-04-06T06:37:19;99926.13;;;6.37;46.11
30021;BME280;16861;52.294;7.760;2023-04-06T06:39:46;99917.25;;;6.42;46.07
30021;BME280;16861;52.294;7.760;2023-04-06T06:42:13;99922.25;;;6.48;45.90
30021;BME280;16861;52.294;7.760;2023-04-06T06:44:40;99923.84;;;6.52;45.99
30021;BME280;16861;52.294;7.760;2023-04-06T06:47:06;99922.75;;;6.58;45.98
30021;BME280;16861;52.294;7.760;2023-04-06T06:49:33;99925.19;;;6.62;45.82
30021;BME280;16861;52.294;7.760;2023-04-06T06:52:00;99927.63;;;6.67;45.55
30021;BME280;16861;52.294;7.760;2023-04-06T06:54:26;99920.47;;;6.72;45.61
30021;BME280;16861;52.294;7.760;2023-04-06T06:56:53;99919.44;;;6.76;45.64
30021;BME280;16861;52.294;7.760;2023-04-06T06:59:21;99921.78;;;6.83;45.70
30021;BME280;16861;52.294;7.760;2023-04-06T07:01:49;99917.31;;;6.86;45.47
30021;BME280;16861;52.294;7.760;2023-04-06T07:04:16;99913.63;;;6.92;45.74
30021;BME280;16861;52.294;7.760;2023-04-06T07:06:43;99920.28;;;6.99;45.68
30021;BME280;16861;52.294;7.760;2023-04-06T07:09:09;99913.19;;;7.03;45.54
30021;BME280;16861;52.294;7.760;2023-04-06T07:11:36;99910.31;;;7.09;45.14
30021;BME280;16861;52.294;7.760;2023-04-06T07:14:03;99918.81;;;7.14;45.63
30021;BME280;16861;52.294;7.760;2023-04-06T07:16:29;99909.94;;;7.19;45.68
30021;BME280;16861;52.294;7.760;2023-04-06T07:18:56;99913.22;;;7.24;45.46
30021;BME280;16861;52.294;7.760;2023-04-06T07:21:23;99907.81;;;7.28;45.38
30021;BME280;16861;52.294;7.760;2023-04-06T07:23:49;99914.56;;;7.34;45.37
30021;BME280;16861;52.294;7.760;2023-04-06T07:26:17;99917.78;;;7.41;45.40
30021;BME280;16861;52.294;7.760;2023-04-06T07:28:44;99911.50;;;7.45;45.42
30021;BME280;16861;52.294;7.760;2023-04-06T07:31:10;99914.66;;;7.53;45.31
30021;BME280;16861;52.294;7.760;2023-04-06T07:33:37;99908.38;;;7.58;45.60
30021;BME280;16861;52.294;7.760;2023-04-06T07:36:04;99911.59;;;7.64;45.55
30021;BME280;16861;52.294;7.760;2023-04-06T07:38:31;99914.84;;;7.69;45.54
30021;BME280;16861;52.294;7.760;2023-04-06T07:40:58;99907.63;;;7.75;45.42
30021;BME280;16861;52.294;7.760;2023-04-06T07:43:24;99916.94;;;7.82;45.36
30021;BME280;16861;52.294;7.760;2023-04-06T07:45:51;99907.06;;;7.89;45.30
30021;BME280;16861;52.294;7.760;2023-04-06T07:48:18;99912.88;;;7.95;45.36
30021;BME280;16861;52.294;7.760;2023-04-06T07:50:45;99913.53;;;8.01;45.33
30021;BME280;16861;52.294;7.760;2023-04-06T07:53:11;99910.78;;;8.04;45.29
30021;BME280;16861;52.294;7.760;2023-04-06T07:55:38;99915.03;;;8.06;44.60
30021;BME280;16861;52.294;7.760;2023-04-06T07:58:05;99917.44;;;8.11;45.05
30021;BME280;16861;52.294;7.760;2023-04-06T08:00:31;99925.03;;;8.17;45.04
30021;BME280;16861;52.294;7.760;2023-04-06T08:02:58;99914.34;;;8.22;45.17
30021;BME280;16861;52.294;7.760;2023-04-06T08:05:25;99915.78;;;8.29;44.92
30021;BME280;16861;52.294;7.760;2023-04-06T08:07:51;99916.41;;;8.34;45.16
30021;BME280;16861;52.294;7.760;2023-04-06T08:10:18;99923.84;;;8.44;45.28
30021;BME280;16861;52.294;7.760;2023-04-06T08:12:44;99916.56;;;8.51;44.97
30021;BME280;16861;52.294;7.760;2023-04-06T08:15:11;99912.84;;;8.56;44.74
30021;BME280;16861;52.294;7.760;2023-04-06T08:17:38;99915.13;;;8.64;44.83
30021;BME280;16861;52.294;7.760;2023-04-06T08:20:04;99911.34;;;8.70;44.32
30021;BME280;16861;52.294;7.760;2023-04-06T08:22:31;99914.53;;;8.77;44.85
30021;BME280;16861;52.294;7.760;2023-04-06T08:24:58;99917.81;;;8.82;44.42
30021;BME280;16861;52.294;7.760;2023-04-06T08:27:24;99918.38;;;8.89;44.46
30021;BME280;16861;52.294;7.760;2023-04-06T08:29:51;99918.06;;;8.95;44.48
30021;BME280;16861;52.294;7.760;2023-04-06T08:32:18;99915.13;;;9.01;44.56
30021;BME280;16861;52.294;7.760;2023-04-06T08:34:44;99917.47;;;9.07;44.67
30021;BME280;16861;52.294;7.760;2023-04-06T08:37:11;99907.53;;;9.14;44.58
30021;BME280;16861;52.294;7.760;2023-04-06T08:39:38;99912.41;;;9.22;44.70
30021;BME280;16861;52.294;7.760;2023-04-06T08:42:11;99905.94;;;9.29;43.81
30021;BME280;16861;52.294;7.760;2023-04-06T08:44:42;99907.09;;;9.41;44.54
30021;BME280;16861;52.294;7.760;2023-04-06T08:47:09;99905.72;;;9.51;44.47
30021;BME280;16861;52.294;7.760;2023-04-06T08:49:37;99909.66;;;9.60;44.35
30021;BME280;16861;52.294;7.760;2023-04-06T08:52:06;99901.28;;;9.70;43.75
30021;BME280;16861;52.294;7.760;2023-04-06T08:54:34;99905.94;;;9.82;44.01
30021;BME280;16861;52.294;7.760;2023-04-06T08:57:02;99903.75;;;9.90;43.52
30021;BME280;16861;52.294;7.760;2023-04-06T08:59:29;99908.44;;;10.01;43.93
30021;BME280;16861;52.294;7.760;2023-04-06T09:01:56;99903.63;;;10.10;43.78
30021;BME280;16861;52.294;7.760;2023-04-06T09:04:23;99900.53;;;10.19;44.07
30021;BME280;16861;52.294;7.760;2023-04-06T09:06:50;99905.28;;;10.28;43.70
30021;BME280;16861;52.294;7.760;2023-04-06T09:09:16;99909.16;;;10.39;43.81
30021;BME280;16861;52.294;7.760;2023-04-06T09:14:10;99905.25;;;10.62;43.73
30021;BME280;16861;52.294;7.760;2023-04-06T09:16:41;99904.66;;;10.73;43.05
30021;BME280;16861;52.294;7.760;2023-04-06T09:19:09;99902.13;;;10.88;43.57
30021;BME280;16861;52.294;7.760;2023-04-06T09:21:36;99903.06;;;11.03;43.67
30021;BME280;16861;52.294;7.760;2023-04-06T09:24:03;99903.97;;;11.18;43.38
30021;BME280;16861;52.294;7.760;2023-04-06T09:26:30;99896.13;;;11.32;43.67
30021;BME280;16861;52.294;7.760;2023-04-06T09:29:00;99894.28;;;11.49;43.47
30021;BME280;16861;52.294;7.760;2023-04-06T09:31:29;99893.56;;;11.62;43.26
30021;BME280;16861;52.294;7.760;2023-04-06T09:33:57;99896.97;;;11.78;43.38
30021;BME280;16861;52.294;7.760;2023-04-06T09:36:35;99892.00;;;11.88;41.55
30021;BME280;16861;52.294;7.760;2023-04-06T09:39:03;99885.88;;;12.02;42.25
30021;BME280;16861;52.294;7.760;2023-04-06T09:41:30;99887.03;;;12.12;42.45
30021;BME280;16861;52.294;7.760;2023-04-06T09:44:10;99883.00;;;12.21;41.20
30021;BME280;16861;52.294;7.760;2023-04-06T09:46:39;99875.16;;;12.34;41.59
30021;BME280;16861;52.294;7.760;2023-04-06T09:49:27;99881.47;;;12.46;40.51
30021;BME280;16861;52.294;7.760;2023-04-06T09:52:03;99873.88;;;12.55;40.41
30021;BME280;16861;52.294;7.760;2023-04-06T09:54:34;99867.09;;;12.65;41.24
30021;BME280;16861;52.294;7.760;2023-04-06T09:57:17;99873.38;;;12.77;41.10
30021;BME280;16861;52.294;7.760;2023-04-06T10:00:06;99869.84;;;12.91;40.02
30021;BME280;16861;52.294;7.760;2023-04-06T10:06:02;99866.56;;;13.28;40.18
30021;BME280;16861;52.294;7.760;2023-04-06T10:08:33;99862.06;;;13.43;40.64
30021;BME280;16861;52.294;7.760;2023-04-06T10:11:01;99866.66;;;13.54;41.45
30021;BME280;16861;52.294;7.760;2023-04-06T10:13:28;99867.69;;;13.64;40.91
30021;BME280;16861;52.294;7.760;2023-04-06T10:15:55;99862.44;;;13.77;40.69
30021;BME280;16861;52.294;7.760;2023-04-06T10:18:21;99872.16;;;13.90;40.52
30021;BME280;16861;52.294;7.760;2023-04-06T10:20:51;99870.47;;;14.02;39.56
30021;BME280;16861;52.294;7.760;2023-04-06T10:23:29;99870.03;;;14.08;38.28
30021;BME280;16861;52.294;7.760;2023-04-06T10:25:59;99879.56;;;14.24;39.92
30021;BME280;16861;52.294;7.760;2023-04-06T10:28:34;99877.22;;;14.32;37.67
30021;BME280;16861;52.294;7.760;2023-04-06T10:31:04;99871.25;;;14.41;38.46
30021;BME280;16861;52.294;7.760;2023-04-06T10:33:32;99866.00;;;14.53;39.58
30021;BME280;16861;52.294;7.760;2023-04-06T10:36:09;99872.56;;;14.60;38.33
30021;BME280;16861;52.294;7.760;2023-04-06T10:38:37;99862.78;;;14.73;39.12
30021;BME280;16861;52.294;7.760;2023-04-06T10:41:11;99865.63;;;14.83;36.47
30021;BME280;16861;52.294;7.760;2023-04-06T10:43:41;99864.00;;;14.94;38.46
30021;BME280;16861;52.294;7.760;2023-04-06T10:46:08;99863.31;;;15.03;38.16
30021;BME280;16861;52.294;7.760;2023-04-06T10:48:40;99862.88;;;15.09;37.38
30021;BME280;16861;52.294;7.760;2023-04-06T10:51:10;99858.81;;;15.17;37.45
30021;BME280;16861;52.294;7.760;2023-04-06T10:53:37;99852.69;;;15.28;38.77
30021;BME280;16861;52.294;7.760;2023-04-06T10:56:10;99857.19;;;15.39;36.47
30021;BME280;16861;52.294;7.760;2023-04-06T10:58:38;99853.47;;;15.53;37.75
30021;BME280;16861;52.294;7.760;2023-04-06T11:01:05;99854.47;;;15.63;37.08
30021;BME280;16861;52.294;7.760;2023-04-06T11:03:42;99852.88;;;15.72;36.49
30021;BME280;16861;52.294;7.760;2023-04-06T11:06:09;99854.97;;;15.91;37.41
30021;BME280;16861;52.294;7.760;2023-04-06T11:08:36;99849.78;;;16.12;37.12
30021;BME280;16861;52.294;7.760;2023-04-06T11:11:12;99847.50;;;16.42;36.60
30021;BME280;16861;52.294;7.760;2023-04-06T11:16:20;99847.66;;;17.39;35.35
30021;BME280;16861;52.294;7.760;2023-04-06T11:19:02;99841.50;;;17.91;34.71
30021;BME280;16861;52.294;7.760;2023-04-06T11:21:37;99842.19;;;18.24;32.12
30021;BME280;16861;52.294;7.760;2023-04-06T11:27:28;99837.63;;;18.46;33.48
30021;BME280;16861;52.294;7.760;2023-04-06T11:29:59;99829.78;;;18.34;32.72
30021;BME280;16861;52.294;7.760;2023-04-06T11:32:26;99836.06;;;18.23;33.35
30021;BME280;16861;52.294;7.760;2023-04-06T11:34:53;99835.59;;;18.08;32.77
30021;BME280;16861;52.294;7.760;2023-04-06T11:37:19;99833.38;;;17.92;32.65
30021;BME280;16861;52.294;7.760;2023-04-06T11:39:51;99838.22;;;17.77;32.08
30021;BME280;16861;52.294;7.760;2023-04-06T11:42:25;99827.50;;;17.67;32.82
30021;BME280;16861;52.294;7.760;2023-04-06T11:44:57;99830.31;;;17.66;32.98
30021;BME280;16861;52.294;7.760;2023-04-06T11:47:32;99830.31;;;17.66;30.97
30021;BME280;16861;52.294;7.760;2023-04-06T11:50:10;99819.41;;;17.69;31.24
30021;BME280;16861;52.294;7.760;2023-04-06T11:52:38;99817.75;;;17.78;32.79
30021;BME280;16861;52.294;7.760;2023-04-06T11:55:16;99813.28;;;17.78;32.69
30021;BME280;16861;52.294;7.760;2023-04-06T11:57:43;99824.66;;;17.90;33.92
30021;BME280;16861;52.294;7.760;2023-04-06T12:00:11;99815.06;;;17.99;33.35
30021;BME280;16861;52.294;7.760;2023-04-06T12:02:48;99818.03;;;18.06;30.46
30021;BME280;16861;52.294;7.760;2023-04-06T12:05:15;99806.44;;;18.17;32.77
30021;BME280;16861;52.294;7.760;2023-04-06T12:07:42;99818.78;;;18.18;32.16
30021;BME280;16861;52.294;7.760;2023-04-06T12:10:09;99818.53;;;18.21;32.85
30021;BME280;16861;52.294;7.760;2023-04-06T12:12:36;99805.34;;;18.29;33.48
30021;BME280;16861;52.294;7.760;2023-04-06T12:15:03;99811.28;;;18.53;34.02
30021;BME280;16861;52.294;7.760;2023-04-06T12:17:31;99816.06;;;18.88;33.62
30021;BME280;16861;52.294;7.760;2023-04-06T12:19:57;99815.13;;;19.29;33.30
30021;BME280;16861;52.294;7.760;2023-04-06T12:22:33;99821.31;;;19.67;32.46
30021;BME280;16861;52.294;7.760;2023-04-06T12:25:02;99812.13;;;20.00;32.14
30021;BME280;16861;52.294;7.760;2023-04-06T12:27:29;99808.88;;;20.24;31.50
30021;BME280;16861;52.294;7.760;2023-04-06T12:29:56;99806.09;;;20.44;30.75
30021;BME280;16861;52.294;7.760;2023-04-06T12:32:22;99798.38;;;20.59;31.20
30021;BME280;16861;52.294;7.760;2023-04-06T12:34:51;99794.34;;;20.73;30.08
30021;BME280;16861;52.294;7.760;2023-04-06T12:37:18;99798.72;;;20.92;30.68
30021;BME280;16861;52.294;7.760;2023-04-06T12:39:45;99794.19;;;21.11;31.07
30021;BME280;16861;52.294;7.760;2023-04-06T12:42:11;99790.00;;;21.35;31.36
30021;BME280;16861;52.294;7.760;2023-04-06T12:44:38;99793.19;;;21.65;31.68
30021;BME280;16861;52.294;7.760;2023-04-06T12:47:05;99793.03;;;21.93;29.78
30021;BME280;16861;52.294;7.760;2023-04-06T12:49:33;99796.97;;;22.16;29.46
30021;BME280;16861;52.294;7.760;2023-04-06T12:52:02;99795.09;;;22.16;26.38
30021;BME280;16861;52.294;7.760;2023-04-06T12:54:28;99790.72;;;22.07;28.15
30021;BME280;16861;52.294;7.760;2023-04-06T12:56:55;99788.31;;;21.87;27.87
30021;BME280;16861;52.294;7.760;2023-04-06T12:59:22;99789.66;;;21.65;27.91
30021;BME280;16861;52.294;7.760;2023-04-06T13:01:51;99780.81;;;21.38;27.19
30021;BME280;16861;52.294;7.760;2023-04-06T13:04:18;99789.53;;;21.13;27.63
30021;BME280;16861;52.294;7.760;2023-04-06T13:06:45;99789.31;;;20.88;27.38
30021;BME280;16861;52.294;7.760;2023-04-06T13:09:11;99788.25;;;20.63;27.21
30021;BME280;16861;52.294;7.760;2023-04-06T13:11:38;99784.78;;;20.34;27.64
30021;BME280;16861;52.294;7.760;2023-04-06T13:14:05;99780.28;;;20.07;28.17
30021;BME280;16861;52.294;7.760;2023-04-06T13:16:31;99780.50;;;19.85;28.14
30021;BME280;16861;52.294;7.760;2023-04-06T13:19:01;99774.66;;;19.72;28.77
30021;BME280;16861;52.294;7.760;2023-04-06T13:21:28;99776.06;;;19.66;28.37